Time;durP1;ratioP1;P1;durP2;ratioP2;P2;SDS_P1;SDS_P2;PMS_P1;PMS_P2;Temp;Humidity;BMP_temperature;BMP_pressure;BME280_temperature;BME280_humidity;BME280_pressure;Samples;Min_cycle;Max_cycle;Signal;HPM_P1;HPM_P2
2022/08/19 00:02:04;;;;;;;1.35;0.70;;;15.10;99.90;;;;;;6209245;23;20027;-71
2022/08/19 00:04:36;;;;;;;1.10;0.68;;;15.10;99.90;;;;;;6208823;23;20021;-72
2022/08/19 00:07:04;;;;;;;0.50;0.50;;;15.10;99.90;;;;;;6210774;23;20046;-71
2022/08/19 00:09:30;;;;;;;0.60;0.60;;;15.00;99.90;;;;;;6215745;23;20401;-72
2022/08/19 00:11:58;;;;;;;0.70;0.50;;;15.00;99.90;;;;;;6191329;23;20074;-72
2022/08/19 00:14:25;;;;;;;0.40;0.40;;;14.90;99.90;;;;;;6215859;23;20539;-72
2022/08/19 00:16:54;;;;;;;0.50;0.30;;;14.80;99.90;;;;;;6190286;23;20070;-72
2022/08/19 00:19:20;;;;;;;0.95;0.50;;;14.90;99.90;;;;;;6214095;23;20048;-72
2022/08/19 00:21:46;;;;;;;0.52;0.50;;;14.80;99.90;;;;;;6215602;23;20031;-72
2022/08/19 00:24:14;;;;;;;;;;;14.80;99.90;;;;;;6216261;23;20016;-72
2022/08/19 00:26:41;;;;;;;0.52;0.40;;;14.80;99.90;;;;;;6215809;23;19934;-72
2022/08/19 00:29:09;;;;;;;0.73;0.47;;;14.70;99.90;;;;;;6190856;23;20019;-72
2022/08/19 00:31:35;;;;;;;0.30;0.30;;;14.70;99.90;;;;;;6215926;23;20052;-72
2022/08/19 00:34:01;;;;;;;0.52;0.43;;;14.60;99.90;;;;;;6190933;23;20091;-72
2022/08/19 00:36:28;;;;;;;0.40;0.40;;;14.60;99.90;;;;;;6215897;23;20441;-72
2022/08/19 00:38:54;;;;;;;0.50;0.50;;;14.60;99.90;;;;;;6216421;23;20012;-72
2022/08/19 00:41:22;;;;;;;0.52;0.52;;;14.50;99.90;;;;;;6216311;23;20038;-72
2022/08/19 00:44:13;;;;;;;0.43;0.43;;;14.60;99.90;;;;;;6216238;23;20020;-72
2022/08/19 00:46:42;;;;;;;0.38;0.38;;;14.50;99.90;;;;;;6215976;23;20487;-72
2022/08/19 00:49:19;;;;;;;0.40;0.40;;;14.50;99.90;;;;;;6216013;23;20023;-72
2022/08/19 00:51:49;;;;;;;0.40;0.40;;;14.50;99.90;;;;;;6215008;23;20475;-72
2022/08/19 00:54:16;;;;;;;1.52;0.70;;;14.50;99.90;;;;;;6216421;23;20061;-72
2022/08/19 00:56:42;;;;;;;0.60;0.52;;;14.50;99.90;;;;;;6215058;23;20027;-72
2022/08/19 00:59:08;;;;;;;;;;;14.40;99.90;;;;;;6216143;23;20023;-72
2022/08/19 01:01:36;;;;;;;0.68;0.63;;;14.50;99.90;;;;;;6215839;23;19922;-73
2022/08/19 01:04:02;;;;;;;0.60;0.60;;;14.50;99.90;;;;;;6215960;23;20051;-72
2022/08/19 01:06:31;;;;;;;0.77;0.60;;;14.40;99.90;;;;;;6215184;23;20016;-72
2022/08/19 01:08:57;;;;;;;0.90;0.65;;;14.30;99.90;;;;;;6215762;23;20051;-72
2022/08/19 01:11:22;;;;;;;0.50;0.40;;;14.30;99.90;;;;;;6215366;23;20016;-72
2022/08/19 01:13:49;;;;;;;0.50;0.50;;;14.40;99.90;;;;;;6190589;23;20016;-72
2022/08/19 01:16:18;;;;;;;0.80;0.52;;;14.30;99.90;;;;;;6215270;23;20083;-72
2022/08/19 01:18:43;;;;;;;0.60;0.50;;;14.20;99.90;;;;;;6215378;23;20106;-72
2022/08/19 01:21:21;;;;;;;0.80;0.50;;;14.20;99.90;;;;;;6190775;23;20441;-72
2022/08/19 01:23:47;;;;;;;0.50;0.50;;;14.30;99.90;;;;;;6215890;23;20504;-72
2022/08/19 01:26:20;;;;;;;0.32;0.32;;;14.20;99.90;;;;;;6216089;23;20023;-72
2022/08/19 01:28:48;;;;;;;0.50;0.40;;;14.20;99.90;;;;;;6216070;23;20465;-72
2022/08/19 01:31:17;;;;;;;0.45;0.40;;;14.20;99.90;;;;;;6215294;23;20070;-72
2022/08/19 01:33:42;;;;;;;0.35;0.32;;;14.20;99.90;;;;;;6190537;23;20012;-71
2022/08/19 01:36:12;;;;;;;0.30;0.30;;;14.30;99.90;;;;;;6216140;23;20045;-72
2022/08/19 01:38:42;;;;;;;0.60;0.30;;;14.20;99.90;;;;;;6216025;23;20345;-72
2022/08/19 01:41:09;;;;;;;0.55;0.40;;;14.20;99.90;;;;;;6216229;23;20021;-72
2022/08/19 01:43:36;;;;;;;0.40;0.40;;;14.20;99.90;;;;;;6216391;23;20012;-72
2022/08/19 01:46:03;;;;;;;0.50;0.50;;;14.20;99.90;;;;;;6216235;23;20028;-72
2022/08/19 01:48:34;;;;;;;0.52;0.52;;;14.20;99.90;;;;;;6215812;23;20015;-71
2022/08/19 01:50:59;;;;;;;0.40;0.40;;;14.20;99.90;;;;;;6215805;23;20046;-72
2022/08/19 01:53:25;;;;;;;0.47;0.47;;;14.20;99.90;;;;;;6215123;23;20020;-71
2022/08/19 01:55:51;;;;;;;0.47;0.47;;;14.20;99.90;;;;;;6214799;23;20043;-71
2022/08/19 01:58:24;;;;;;;0.47;0.47;;;14.30;99.90;;;;;;6215883;23;20023;-71
2022/08/19 02:00:50;;;;;;;0.60;0.60;;;14.20;99.90;;;;;;6215015;23;20004;-72
2022/08/19 02:03:16;;;;;;;0.45;0.45;;;14.30;99.90;;;;;;6216278;23;20145;-71
2022/08/19 02:05:43;;;;;;;0.50;0.50;;;14.30;99.90;;;;;;6192754;23;20315;-71
2022/08/19 02:08:09;;;;;;;0.52;0.50;;;14.10;99.90;;;;;;6192131;23;20353;-71
2022/08/19 02:10:42;;;;;;;0.43;0.40;;;14.20;99.90;;;;;;6217447;23;20091;-71
2022/08/19 02:13:08;;;;;;;0.88;0.45;;;14.10;99.90;;;;;;6217307;23;20030;-71
2022/08/19 02:15:34;;;;;;;;;;;14.10;99.90;;;;;;6217698;23;20401;-71
2022/08/19 02:17:59;;;;;;;0.77;0.60;;;14.10;99.90;;;;;;6218154;23;19974;-77
2022/08/19 02:20:25;;;;;;;0.70;0.60;;;14.00;99.90;;;;;;6218629;23;20524;-77
2022/08/19 02:22:51;;;;;;;1.13;0.95;;;14.00;99.90;;;;;;6194247;23;20016;-78
2022/08/19 02:25:16;;;;;;;1.13;0.80;;;14.10;99.90;;;;;;6217862;23;20017;-78
2022/08/19 02:27:43;;;;;;;0.90;0.80;;;14.00;99.90;;;;;;6243612;23;20016;-78
2022/08/19 02:30:13;;;;;;;1.42;0.60;;;14.10;99.90;;;;;;6217467;23;20023;-77
2022/08/19 02:32:38;;;;;;;0.65;0.65;;;14.00;99.90;;;;;;6219151;23;20357;-78
2022/08/19 02:35:05;;;;;;;0.57;0.47;;;13.90;99.90;;;;;;6218599;23;20012;-77
2022/08/19 02:40:17;;;;;;;0.60;0.50;;;14.00;99.90;;;;;;6223265;23;20095;-78
2022/08/19 02:42:43;;;;;;;0.75;0.50;;;14.00;99.90;;;;;;6219401;23;20032;-77
2022/08/19 02:45:09;;;;;;;0.60;0.40;;;13.80;99.90;;;;;;6193852;23;20012;-77
2022/08/19 02:47:35;;;;;;;;;;;13.90;99.90;;;;;;6219408;23;20023;-77
2022/08/19 02:50:01;;;;;;;0.50;0.50;;;13.80;99.90;;;;;;6219037;23;19911;-77
2022/08/19 02:52:28;;;;;;;0.40;0.40;;;14.00;99.90;;;;;;6218952;23;20019;-78
2022/08/19 02:54:55;;;;;;;0.57;0.50;;;13.80;99.90;;;;;;6194324;23;20023;-78
2022/08/19 02:57:21;;;;;;;0.30;0.30;;;13.90;99.90;;;;;;6218902;23;20008;-77
2022/08/19 02:59:46;;;;;;;0.70;0.45;;;13.80;99.90;;;;;;6218205;23;20070;-78
2022/08/19 03:02:12;;;;;;;0.32;0.32;;;13.80;99.90;;;;;;6218315;23;20048;-77
2022/08/19 03:04:37;;;;;;;0.35;0.35;;;13.90;99.90;;;;;;6218600;23;20020;-77
2022/08/19 03:07:03;;;;;;;1.00;0.40;;;13.80;99.90;;;;;;6218608;23;20452;-77
2022/08/19 03:09:29;;;;;;;0.45;0.30;;;13.90;99.90;;;;;;6218603;23;20099;-78
2022/08/19 03:11:55;;;;;;;;;;;13.90;99.90;;;;;;6193784;23;20065;-78
2022/08/19 03:14:21;;;;;;;0.32;0.30;;;13.90;99.90;;;;;;6192743;23;19919;-78
2022/08/19 03:16:50;;;;;;;0.45;0.43;;;14.00;99.90;;;;;;6217754;23;20020;-71
2022/08/19 03:19:18;;;;;;;0.40;0.40;;;13.80;99.90;;;;;;6217113;23;20091;-77
2022/08/19 03:21:44;;;;;;;0.38;0.38;;;13.90;99.90;;;;;;6243186;23;20012;-78
2022/08/19 03:24:11;;;;;;;0.40;0.30;;;13.90;99.90;;;;;;6218327;23;20052;-78
2022/08/19 03:26:46;;;;;;;0.40;0.40;;;13.70;99.90;;;;;;6217791;23;20446;-78
2022/08/19 03:29:12;;;;;;;0.40;0.40;;;13.80;99.90;;;;;;6218390;23;20023;-71
2022/08/19 03:31:39;;;;;;;0.30;0.30;;;13.60;99.90;;;;;;6216208;23;20016;-71
2022/08/19 03:34:05;;;;;;;0.63;0.63;;;13.80;99.90;;;;;;6191388;23;20020;-71
2022/08/19 03:36:31;;;;;;;0.60;0.60;;;13.90;99.90;;;;;;6215586;23;20023;-71
2022/08/19 03:39:00;;;;;;;0.82;0.80;;;13.80;99.90;;;;;;6191754;23;20062;-71
2022/08/19 03:41:30;;;;;;;1.00;0.70;;;14.00;99.90;;;;;;6216629;23;20008;-71
2022/08/19 03:43:57;;;;;;;1.13;0.70;;;14.00;99.90;;;;;;6216245;23;20039;-71
2022/08/19 03:46:26;;;;;;;0.60;0.50;;;14.00;99.90;;;;;;6213757;23;20020;-71
2022/08/19 03:48:55;;;;;;;0.35;0.35;;;14.00;99.90;;;;;;6214109;23;20020;-71
2022/08/19 03:51:27;;;;;;;0.70;0.70;;;14.00;99.90;;;;;;6214652;23;20054;-71
2022/08/19 03:53:54;;;;;;;0.75;0.73;;;13.80;99.90;;;;;;6216583;23;20016;-71
2022/08/19 03:56:21;;;;;;;0.75;0.60;;;14.10;99.90;;;;;;6216870;23;20012;-71
2022/08/19 03:58:46;;;;;;;;;;;14.00;99.90;;;;;;6217374;23;20362;-71
2022/08/19 04:01:17;;;;;;;0.80;0.80;;;13.80;99.90;;;;;;6216086;23;19919;-71
2022/08/19 04:03:45;;;;;;;0.80;0.80;;;14.00;99.90;;;;;;6190966;23;20095;-71
2022/08/19 04:06:17;;;;;;;1.88;1.05;;;14.10;99.90;;;;;;6216228;23;20047;-71
2022/08/19 04:08:44;;;;;;;1.00;0.90;;;14.00;99.90;;;;;;6215916;23;20032;-71
2022/08/19 04:11:13;;;;;;;1.35;1.20;;;13.80;99.90;;;;;;6190388;23;20082;-71
2022/08/19 04:13:40;;;;;;;1.30;1.20;;;13.80;99.90;;;;;;6191085;23;20028;-71
2022/08/19 04:16:06;;;;;;;1.92;1.30;;;14.20;99.90;;;;;;6190920;23;20008;-71
2022/08/19 04:18:34;;;;;;;;;;;14.20;99.90;;;;;;6216537;23;20016;-71
2022/08/19 04:21:00;;;;;;;1.35;1.20;;;14.10;99.90;;;;;;6215892;23;19941;-71
2022/08/19 04:23:27;;;;;;;1.15;1.00;;;13.90;99.90;;;;;;6216020;23;20492;-71
2022/08/19 04:25:54;;;;;;;1.50;1.20;;;14.00;99.90;;;;;;6215629;23;20341;-71
2022/08/19 04:28:20;;;;;;;2.22;1.30;;;14.20;99.90;;;;;;6215991;23;20087;-71
2022/08/19 04:30:47;;;;;;;;;;;14.20;99.90;;;;;;6216505;23;20060;-71
2022/08/19 04:33:15;;;;;;;1.20;1.02;;;14.10;99.90;;;;;;6216472;23;19925;-71
2022/08/19 04:35:44;;;;;;;1.08;0.98;;;14.10;99.90;;;;;;6216118;23;20039;-71
2022/08/19 04:38:10;;;;;;;1.17;0.98;;;14.20;99.90;;;;;;6216038;23;20019;-71
2022/08/19 04:43:37;;;;;;;1.50;1.30;;;14.20;99.90;;;;;;6215027;23;20031;-71
2022/08/19 04:46:10;;;;;;;1.67;1.30;;;14.40;99.90;;;;;;6215024;23;20024;-71
2022/08/19 04:48:37;;;;;;;1.30;1.17;;;14.50;99.90;;;;;;6190354;23;20020;-70
2022/08/19 04:51:08;;;;;;;1.48;1.05;;;14.10;99.90;;;;;;6215431;23;20012;-72
2022/08/19 04:53:36;;;;;;;1.20;1.10;;;14.20;99.90;;;;;;6215447;23;20056;-72
2022/08/19 04:56:09;;;;;;;0.80;0.80;;;14.30;99.90;;;;;;6215916;23;20102;-72
2022/08/19 04:58:36;;;;;;;1.25;0.90;;;14.20;99.90;;;;;;6213292;23;20062;-72
2022/08/19 05:01:01;;;;;;;1.27;1.00;;;14.50;99.90;;;;;;6214731;23;20098;-73
2022/08/19 05:03:33;;;;;;;1.13;1.02;;;14.60;99.90;;;;;;6187603;23;20058;-72
2022/08/19 05:06:11;;;;;;;0.80;0.70;;;14.20;99.90;;;;;;6212921;23;20408;-73
2022/08/19 05:08:43;;;;;;;1.80;1.30;;;14.30;99.90;;;;;;6211528;23;20482;-73
2022/08/19 05:11:22;;;;;;;0.90;0.80;;;14.40;99.90;;;;;;6187166;23;20020;-73
2022/08/19 05:13:48;;;;;;;1.02;0.93;;;14.40;99.90;;;;;;6212639;23;20405;-73
2022/08/19 05:16:15;;;;;;;;;;;14.60;99.90;;;;;;6213643;23;20077;-72
2022/08/19 05:24:12;;;;;;;1.20;1.10;;;14.50;99.90;;;;;;6212293;23;20102;-74
2022/08/19 05:26:40;;;;;;;1.25;1.15;;;14.60;99.90;;;;;;6213040;23;20046;-74
2022/08/19 05:29:07;;;;;;;1.00;0.90;;;14.60;99.90;;;;;;6212925;23;20020;-73
2022/08/19 05:31:33;;;;;;;1.42;1.20;;;14.80;99.90;;;;;;6212077;23;20524;-73
2022/08/19 05:33:59;;;;;;;0.77;0.77;;;14.70;99.90;;;;;;6212279;23;20020;-73
2022/08/19 05:36:27;;;;;;;1.30;1.08;;;15.00;99.90;;;;;;6212471;23;20019;-73
2022/08/19 05:38:53;;;;;;;1.38;1.13;;;15.10;99.90;;;;;;6214177;23;20084;-73
2022/08/19 05:41:20;;;;;;;1.50;1.08;;;14.80;99.90;;;;;;6212191;23;20027;-72
2022/08/19 05:43:46;;;;;;;1.05;0.95;;;15.10;99.90;;;;;;6214068;23;20051;-72
2022/08/19 05:46:19;;;;;;;1.05;0.93;;;15.10;99.90;;;;;;6214891;23;20073;-73
2022/08/19 05:48:45;;;;;;;1.10;0.98;;;14.90;99.90;;;;;;6189375;23;20098;-72
2022/08/19 05:51:11;;;;;;;;;;;15.20;99.90;;;;;;6214380;23;20127;-72
2022/08/19 05:53:37;;;;;;;0.70;0.70;;;15.00;99.90;;;;;;6214265;23;20362;-72
2022/08/19 05:56:11;;;;;;;1.30;1.00;;;14.90;99.90;;;;;;6189071;23;20024;-72
2022/08/19 05:58:37;;;;;;;1.15;0.93;;;15.00;99.90;;;;;;6213504;23;20051;-72
2022/08/19 06:01:05;;;;;;;;;;;15.10;99.90;;;;;;6213543;23;20111;-73
2022/08/19 06:03:37;;;;;;;1.75;1.40;;;15.50;99.90;;;;;;6213989;23;19915;-72
2022/08/19 06:06:03;;;;;;;1.65;1.33;;;15.60;99.90;;;;;;6213412;23;20048;-73
2022/08/19 06:08:29;;;;;;;1.88;1.65;;;15.30;99.90;;;;;;6213862;23;20012;-73
2022/08/19 06:10:56;;;;;;;1.95;1.42;;;15.50;99.90;;;;;;6217233;23;20530;-73
2022/08/19 06:13:22;;;;;;;;;;;15.50;99.90;;;;;;6215167;23;20027;-73
2022/08/19 06:15:48;;;;;;;1.88;1.50;;;15.70;99.90;;;;;;6214647;23;20278;-72
2022/08/19 06:18:14;;;;;;;;;;;15.70;99.90;;;;;;6215789;23;20016;-73
2022/08/19 06:20:41;;;;;;;2.05;1.70;;;16.10;99.90;;;;;;6214715;23;20267;-73
2022/08/19 06:23:08;;;;;;;2.08;1.88;;;16.30;99.90;;;;;;6214550;23;20103;-73
2022/08/19 06:25:34;;;;;;;2.80;2.00;;;16.30;99.90;;;;;;6188668;23;20349;-73
2022/08/19 06:27:59;;;;;;;;;;;16.60;99.90;;;;;;6214756;23;20020;-72
2022/08/19 06:30:25;;;;;;;3.20;1.90;;;17.10;99.90;;;;;;6214931;23;19937;-73
2022/08/19 06:32:51;;;;;;;2.85;1.98;;;17.80;99.90;;;;;;6213963;23;20065;-72
2022/08/19 06:35:17;;;;;;;2.33;2.10;;;18.30;99.90;;;;;;6214213;23;20047;-72
2022/08/19 06:37:42;;;;;;;2.30;2.08;;;18.60;99.90;;;;;;6216788;23;20374;-72
2022/08/19 06:40:10;;;;;;;2.30;1.92;;;19.30;99.90;;;;;;6213954;23;20422;-71
2022/08/19 06:42:38;;;;;;;3.55;2.25;;;19.40;99.90;;;;;;6211754;23;20058;-72
2022/08/19 06:45:05;;;;;;;2.40;2.20;;;19.50;99.90;;;;;;6190007;23;20310;-73
2022/08/19 06:47:32;;;;;;;2.42;2.20;;;19.00;99.90;;;;;;6216300;23;20620;-72
2022/08/19 06:50:03;;;;;;;2.85;2.33;;;19.20;99.90;;;;;;6217253;23;20012;-72
2022/08/19 06:52:34;;;;;;;2.10;1.77;;;18.90;99.90;;;;;;6217046;23;20016;-72
2022/08/19 06:55:01;;;;;;;1.90;1.63;;;19.20;99.90;;;;;;6192469;23;20366;-72
2022/08/19 06:57:28;;;;;;;2.58;1.75;;;19.40;99.90;;;;;;6216909;23;20012;-72
2022/08/19 06:59:55;;;;;;;2.25;1.50;;;19.60;99.90;;;;;;6217470;23;20016;-72
2022/08/19 07:02:25;;;;;;;1.73;1.60;;;19.80;99.90;;;;;;6217131;23;20038;-72
2022/08/19 07:04:52;;;;;;;2.10;1.50;;;20.30;99.90;;;;;;6192161;23;20057;-72
2022/08/19 07:07:19;;;;;;;2.35;2.13;;;20.60;99.90;;;;;;6216749;23;20024;-72
2022/08/19 07:09:44;;;;;;;5.00;2.47;;;20.70;99.90;;;;;;6217297;23;20020;-72
2022/08/19 07:12:11;;;;;;;;;;;21.20;99.90;;;;;;6217630;23;20020;-72
2022/08/19 07:14:38;;;;;;;3.33;2.40;;;21.60;99.90;;;;;;6191992;23;19958;-72
2022/08/19 07:17:10;;;;;;;2.83;2.25;;;21.90;99.90;;;;;;6217051;23;20039;-73
2022/08/19 07:19:37;;;;;;;2.05;1.67;;;22.10;99.90;;;;;;6216934;23;20051;-73
2022/08/19 07:22:06;;;;;;;3.22;2.20;;;22.20;99.90;;;;;;6216793;23;20023;-72
2022/08/19 07:24:33;;;;;;;2.45;1.70;;;22.20;99.90;;;;;;6243687;23;20062;-73
2022/08/19 07:27:02;;;;;;;2.53;2.17;;;22.50;99.90;;;;;;6216751;23;20349;-72
2022/08/19 07:29:33;;;;;;;3.45;2.13;;;22.70;99.90;;;;;;6216779;23;20039;-72
2022/08/19 07:32:00;;;;;;;2.63;1.95;;;22.80;99.90;;;;;;6216603;23;20051;-71
2022/08/19 07:34:28;;;;;;;2.58;2.03;;;22.90;99.90;;;;;;6216653;23;20077;-70
2022/08/19 07:36:55;;;;;;;1.95;1.70;;;23.10;99.90;;;;;;6216403;23;20012;-71
2022/08/19 07:39:29;;;;;;;2.58;2.33;;;23.30;99.90;;;;;;6217031;23;20012;-73
2022/08/19 07:41:57;;;;;;;2.25;2.00;;;23.20;99.90;;;;;;6216451;23;20517;-70
2022/08/19 07:44:23;;;;;;;2.25;1.70;;;23.30;99.90;;;;;;6216593;23;20109;-70
2022/08/19 07:46:52;;;;;;;2.25;2.05;;;23.50;99.90;;;;;;6241215;23;20024;-71
2022/08/19 07:49:19;;;;;;;2.13;1.67;;;23.40;99.90;;;;;;6213970;23;20020;-71
2022/08/19 07:51:51;;;;;;;2.33;1.83;;;23.40;99.90;;;;;;6216099;23;20012;-71
2022/08/19 07:54:18;;;;;;;2.45;1.63;;;23.60;99.90;;;;;;6216047;23;20024;-70
2022/08/19 07:56:43;;;;;;;2.10;1.90;;;23.70;99.90;;;;;;6214634;23;20019;-71
2022/08/19 07:59:11;;;;;;;2.80;1.80;;;23.80;99.90;;;;;;6188175;23;20008;-72
2022/08/19 08:01:39;;;;;;;2.80;2.20;;;23.80;99.90;;;;;;6215233;23;20012;-71
2022/08/19 08:09:40;;;;;;;3.30;2.40;;;23.90;99.90;;;;;;6213405;23;20030;-70
2022/08/19 08:12:24;;;;;;;2.42;2.20;;;24.10;99.90;;;;;;6215197;23;20054;-70
2022/08/19 08:14:53;;;;;;;2.90;2.25;;;24.10;99.90;;;;;;6215896;23;20024;-71
2022/08/19 08:17:21;;;;;;;2.25;1.85;;;24.20;99.90;;;;;;6214863;23;20031;-70
2022/08/19 08:19:50;;;;;;;2.92;2.55;;;24.20;99.90;;;;;;6213942;23;20461;-70
2022/08/19 08:25:12;;;;;;;2.85;2.30;;;24.00;99.90;;;;;;6215145;23;20028;-71
2022/08/19 08:27:40;;;;;;;2.10;1.90;;;23.80;99.90;;;;;;6240212;23;20054;-70
2022/08/19 08:30:13;;;;;;;2.28;1.90;;;23.80;99.90;;;;;;6214752;23;20016;-71
2022/08/19 08:32:40;;;;;;;3.40;2.75;;;24.00;99.90;;;;;;6210753;23;20016;-73
2022/08/19 08:35:09;;;;;;;3.45;2.70;;;24.00;99.90;;;;;;6212318;23;20200;-70
2022/08/19 08:37:35;;;;;;;2.35;1.98;;;24.00;99.90;;;;;;6239685;23;20012;-71
2022/08/19 08:40:22;;;;;;;4.53;3.40;;;24.20;99.90;;;;;;6241007;23;20092;-70
2022/08/19 08:43:26;;;;;;;3.95;2.67;;;23.80;99.90;;;;;;6214128;23;20026;-71
2022/08/19 08:46:00;;;;;;;4.15;2.83;;;23.90;99.90;;;;;;6213214;23;20122;-71
2022/08/19 08:48:42;;;;;;;3.35;2.58;;;23.80;99.90;;;;;;6215393;23;20024;-73
2022/08/19 08:51:13;;;;;;;4.13;3.50;;;23.90;99.90;;;;;;6214301;23;20385;-70
2022/08/19 08:53:40;;;;;;;3.20;2.88;;;23.80;99.90;;;;;;6213826;23;20024;-71
2022/08/19 08:56:11;;;;;;;3.30;2.58;;;23.70;99.90;;;;;;6214821;23;20023;-71
2022/08/19 08:58:51;;;;;;;2.42;2.22;;;23.90;99.90;;;;;;6213503;23;20024;-71
2022/08/19 09:01:16;;;;;;;2.65;2.30;;;24.00;99.90;;;;;;6214892;23;20020;-71
2022/08/19 09:03:45;;;;;;;2.72;2.30;;;24.10;99.90;;;;;;6215216;23;20437;-71
2022/08/19 09:06:32;;;;;;;2.83;2.08;;;24.30;99.90;;;;;;6215105;23;20050;-71
2022/08/19 09:09:02;;;;;;;2.83;1.90;;;24.50;99.90;;;;;;6214861;23;20024;-72
2022/08/19 09:11:37;;;;;;;2.20;1.90;;;24.80;99.90;;;;;;6214633;23;20046;-72
2022/08/19 09:14:32;;;;;;;1.90;1.60;;;25.00;99.90;;;;;;6213307;23;20077;-71
2022/08/19 09:16:59;;;;;;;2.08;1.80;;;25.10;99.90;;;;;;6214682;23;20106;-71
2022/08/19 09:19:25;;;;;;;3.08;2.13;;;25.20;99.90;;;;;;6214598;23;20463;-72
2022/08/19 09:21:50;;;;;;;2.00;1.80;;;25.40;99.90;;;;;;6214910;23;20016;-72
2022/08/19 09:24:16;;;;;;;2.10;1.90;;;25.30;99.90;;;;;;6215210;23;20465;-72
2022/08/19 09:26:43;;;;;;;2.35;2.05;;;25.60;99.90;;;;;;6215806;23;20357;-72
2022/08/19 09:29:10;;;;;;;2.42;2.03;;;25.60;99.90;;;;;;6214324;23;20024;-71
2022/08/19 09:31:36;;;;;;;1.63;1.52;;;25.80;99.90;;;;;;6214549;23;20020;-72
2022/08/19 09:34:04;;;;;;;1.77;1.67;;;26.00;99.90;;;;;;6190039;23;20362;-72
2022/08/19 09:36:35;;;;;;;2.13;1.80;;;26.20;99.90;;;;;;6214114;23;20024;-72
2022/08/19 09:39:05;;;;;;;2.33;1.95;;;26.20;99.90;;;;;;6214143;23;20016;-72
2022/08/19 09:41:31;;;;;;;3.65;2.92;;;26.20;99.40;;;;;;6190976;23;20004;-72
2022/08/19 09:43:58;;;;;;;2.40;2.20;;;25.90;99.90;;;;;;6191202;23;20027;-72
2022/08/19 09:46:27;;;;;;;2.70;2.30;;;26.00;99.90;;;;;;6215890;23;20380;-72
2022/08/19 09:48:53;;;;;;;2.28;2.08;;;25.90;99.90;;;;;;6216215;23;20523;-72
2022/08/19 09:51:22;;;;;;;2.70;2.40;;;26.10;99.90;;;;;;6216003;23;20070;-72
2022/08/19 09:53:50;;;;;;;1.88;1.77;;;26.20;99.80;;;;;;6242604;23;20357;-72
2022/08/19 09:56:18;;;;;;;2.92;2.25;;;26.20;99.20;;;;;;6214841;23;20028;-72
2022/08/19 09:58:44;;;;;;;3.10;2.80;;;26.20;98.70;;;;;;6215332;23;20020;-71
2022/08/19 10:01:16;;;;;;;2.78;2.05;;;25.80;99.00;;;;;;6189673;23;20421;-71
2022/08/19 10:03:42;;;;;;;2.50;2.30;;;26.20;99.80;;;;;;6215279;23;20020;-72
2022/08/19 10:06:08;;;;;;;2.50;2.30;;;26.20;99.30;;;;;;6215192;23;20356;-71
2022/08/19 10:08:36;;;;;;;3.47;3.17;;;26.30;99.90;;;;;;6214439;23;20508;-72
2022/08/19 10:11:04;;;;;;;3.17;2.85;;;26.10;99.30;;;;;;6215044;23;20024;-72
2022/08/19 10:13:31;;;;;;;3.17;2.88;;;26.00;99.50;;;;;;6215021;23;20024;-72
2022/08/19 10:16:04;;;;;;;4.22;3.83;;;26.10;99.40;;;;;;6214439;23;20012;-72
2022/08/19 10:18:33;;;;;;;3.00;2.65;;;25.90;98.30;;;;;;6215467;23;20032;-72
2022/08/19 10:21:09;;;;;;;4.57;3.17;;;26.00;98.90;;;;;;6214881;23;20008;-72
2022/08/19 10:23:43;;;;;;;5.57;4.22;;;25.90;98.80;;;;;;6189566;23;20020;-72
2022/08/19 10:26:09;;;;;;;3.55;3.10;;;25.70;98.30;;;;;;6216948;23;20026;-72
2022/08/19 10:28:39;;;;;;;4.20;3.70;;;25.70;99.00;;;;;;6216227;23;20031;-72
2022/08/19 10:31:12;;;;;;;4.15;3.72;;;25.70;99.10;;;;;;6190556;23;20027;-72
2022/08/19 10:33:39;;;;;;;4.72;3.28;;;25.70;98.80;;;;;;6217814;23;20048;-72
2022/08/19 10:36:17;;;;;;;2.25;2.05;;;25.90;99.00;;;;;;6217282;23;20521;-72
2022/08/19 10:38:45;;;;;;;2.35;2.15;;;26.20;99.20;;;;;;6216526;23;20012;-71
2022/08/19 10:41:16;;;;;;;2.90;2.60;;;26.60;98.80;;;;;;6216282;23;20013;-72
2022/08/19 10:43:44;;;;;;;2.63;2.42;;;26.80;98.60;;;;;;6215379;23;20020;-71
2022/08/19 10:46:13;;;;;;;3.60;3.10;;;27.10;98.30;;;;;;6216804;23;20387;-72
2022/08/19 10:48:39;;;;;;;3.30;2.88;;;26.80;98.60;;;;;;6215438;23;20019;-72
2022/08/19 10:53:50;;;;;;;4.03;3.53;;;26.70;98.40;;;;;;6216230;23;20115;-71
2022/08/19 10:59:02;;;;;;;4.05;3.60;;;26.70;98.90;;;;;;6216038;23;20020;-72
2022/08/19 11:01:30;;;;;;;4.68;3.70;;;26.70;98.40;;;;;;6215541;23;20024;-71
2022/08/19 11:03:57;;;;;;;5.18;4.10;;;26.90;97.90;;;;;;6216174;23;20472;-71
2022/08/19 11:06:25;;;;;;;3.70;3.28;;;26.60;97.70;;;;;;6216871;23;20024;-72
2022/08/19 11:08:54;;;;;;;3.80;3.33;;;26.60;98.10;;;;;;6185951;23;20028;-72
2022/08/19 11:11:21;;;;;;;3.00;2.70;;;26.90;98.60;;;;;;6211914;23;20092;-71
2022/08/19 11:13:47;;;;;;;3.50;3.20;;;27.20;98.00;;;;;;6211563;23;20052;-71
2022/08/19 11:16:15;;;;;;;3.25;2.80;;;27.10;98.00;;;;;;6187111;23;20027;-71
2022/08/19 11:18:48;;;;;;;3.53;2.45;;;27.40;97.80;;;;;;6208540;23;20009;-71
2022/08/19 11:21:17;;;;;;;3.90;3.50;;;27.30;97.50;;;;;;6211382;23;20024;-71
2022/08/19 11:23:43;;;;;;;3.30;2.92;;;26.80;97.30;;;;;;6211921;23;20058;-71
2022/08/19 11:26:10;;;;;;;3.28;2.70;;;26.50;97.60;;;;;;6210694;23;20017;-71
2022/08/19 11:28:36;;;;;;;3.35;3.05;;;26.70;97.90;;;;;;6211508;23;20020;-71
2022/08/19 11:31:03;;;;;;;3.22;2.92;;;27.00;98.30;;;;;;6211049;23;20013;-71
2022/08/19 11:33:30;;;;;;;3.45;2.85;;;27.30;97.50;;;;;;6209282;23;20131;-71
2022/08/19 11:35:59;;;;;;;3.55;2.90;;;27.60;97.20;;;;;;6210696;23;20074;-71
2022/08/19 11:38:25;;;;;;;2.78;2.42;;;27.60;97.00;;;;;;6211045;23;20013;-71
2022/08/19 11:40:59;;;;;;;4.95;3.10;;;27.30;96.70;;;;;;6210773;23;20050;-71
2022/08/19 11:43:26;;;;;;;3.30;3.00;;;26.90;97.20;;;;;;6209181;23;20032;-71
2022/08/19 11:45:53;;;;;;;3.10;2.80;;;26.50;97.60;;;;;;6212300;23;20004;-71
2022/08/19 11:48:22;;;;;;;4.13;3.72;;;26.20;97.90;;;;;;6185672;23;20304;-71
2022/08/19 11:50:55;;;;;;;3.72;3.38;;;26.00;98.00;;;;;;6210679;23;20422;-71
2022/08/19 11:53:22;;;;;;;4.50;4.00;;;25.80;98.30;;;;;;6185219;23;20026;-71
2022/08/19 11:55:48;;;;;;;4.07;3.65;;;25.60;98.60;;;;;;6210870;23;20677;-71
2022/08/19 11:58:15;;;;;;;5.13;3.55;;;25.50;99.20;;;;;;6186178;23;20042;-71
2022/08/19 12:00:42;;;;;;;4.22;3.83;;;25.50;99.50;;;;;;6210518;23;20017;-71
2022/08/19 12:03:08;;;;;;;3.97;3.05;;;25.50;98.30;;;;;;6211468;23;20071;-71
2022/08/19 12:05:37;;;;;;;3.17;2.80;;;25.70;98.50;;;;;;6208491;23;20035;-71
2022/08/19 12:08:03;;;;;;;4.03;3.30;;;25.80;98.20;;;;;;6211102;23;20020;-71
2022/08/19 12:10:29;;;;;;;3.55;3.03;;;25.80;97.90;;;;;;6209943;23;20020;-71
2022/08/19 12:12:54;;;;;;;4.13;3.35;;;25.90;98.20;;;;;;6209803;23;20017;-78
2022/08/19 12:15:20;;;;;;;3.75;3.35;;;25.90;98.20;;;;;;6183868;23;20442;-78
2022/08/19 12:17:46;;;;;;;4.32;3.47;;;25.90;98.20;;;;;;6209991;23;20016;-78
2022/08/19 12:20:15;;;;;;;3.28;2.97;;;25.80;98.80;;;;;;6211085;23;20430;-78
2022/08/19 12:22:41;;;;;;;3.08;2.78;;;25.90;98.60;;;;;;6209543;23;20044;-78
2022/08/19 12:25:09;;;;;;;3.97;3.58;;;26.00;98.30;;;;;;6211205;23;20394;-78
2022/08/19 12:27:35;;;;;;;3.63;3.33;;;26.00;98.10;;;;;;6209919;23;20017;-78
2022/08/19 12:30:02;;;;;;;3.45;3.15;;;25.90;98.10;;;;;;6211048;23;20073;-78
2022/08/19 12:32:28;;;;;;;3.90;3.47;;;26.10;98.50;;;;;;6209713;23;20047;-77
2022/08/19 12:34:54;;;;;;;4.45;3.97;;;26.20;98.00;;;;;;6208198;23;20466;-77
2022/08/19 12:37:20;;;;;;;3.70;3.30;;;26.20;98.20;;;;;;6209983;23;20016;-77
2022/08/19 12:39:46;;;;;;;3.47;3.10;;;26.20;98.20;;;;;;6210057;23;20083;-77
2022/08/19 12:42:13;;;;;;;3.00;2.70;;;26.30;98.20;;;;;;6208453;23;20048;-77
2022/08/19 12:44:40;;;;;;;2.72;2.53;;;26.40;97.80;;;;;;6213233;23;20021;-77
2022/08/19 12:47:07;;;;;;;3.55;2.90;;;26.50;97.70;;;;;;6184352;23;20027;-78
2022/08/19 12:49:36;;;;;;;3.50;3.00;;;26.30;97.00;;;;;;6210633;23;20028;-77
2022/08/19 12:52:04;;;;;;;3.17;2.80;;;26.30;97.20;;;;;;6211079;23;20386;-77
2022/08/19 12:54:30;;;;;;;3.88;3.30;;;26.10;97.20;;;;;;6210198;23;20076;-78
2022/08/19 12:56:57;;;;;;;3.47;3.17;;;26.20;97.90;;;;;;6210277;23;20319;-77
2022/08/19 12:59:23;;;;;;;5.07;4.15;;;26.20;97.90;;;;;;6209068;23;20051;-78
2022/08/19 13:01:49;;;;;;;4.80;3.88;;;25.90;97.70;;;;;;6210924;23;20382;-78
2022/08/19 13:04:16;;;;;;;4.85;4.00;;;25.70;98.00;;;;;;6207889;23;20024;-77
2022/08/19 13:06:42;;;;;;;5.00;3.80;;;25.50;98.50;;;;;;6207973;23;20020;-77
2022/08/19 13:09:08;;;;;;;3.72;3.30;;;25.50;98.40;;;;;;6209378;23;20025;-77
2022/08/19 13:11:34;;;;;;;5.35;4.40;;;25.50;98.50;;;;;;6210698;23;20027;-77
2022/08/19 13:14:02;;;;;;;6.88;4.90;;;25.30;98.50;;;;;;6208962;23;20104;-78
2022/08/19 13:16:28;;;;;;;6.05;4.50;;;25.20;98.70;;;;;;6211829;23;20023;-78
2022/08/19 13:18:56;;;;;;;5.10;4.43;;;25.50;99.00;;;;;;6185510;23;20012;-78
2022/08/19 13:21:24;;;;;;;5.63;4.53;;;25.90;98.80;;;;;;6211419;23;20017;-78